Time;durP1;ratioP1;P1;durP2;ratioP2;P2;SDS_P1;SDS_P2;PMS_P1;PMS_P2;Temp;Humidity;BMP_temperature;BMP_pressure;BME280_temperature;BME280_humidity;BME280_pressure;Samples;Min_cycle;Max_cycle;Signal;HPM_P1;HPM_P2
2023/01/19 00:00:54;;;;;;;17.15;12.55;;;1.10;99.90;;;;;;5018185;28;20459;-61
2023/01/19 00:03:20;;;;;;;17.23;11.97;;;1.10;99.90;;;;;;5019714;28;20520;-62
2023/01/19 00:05:47;;;;;;;17.48;12.15;;;1.20;99.90;;;;;;5018637;28;20429;-62
2023/01/19 00:08:14;;;;;;;19.90;12.85;;;1.20;99.90;;;;;;5017918;28;20537;-62
2023/01/19 00:10:42;;;;;;;17.77;12.30;;;1.20;99.90;;;;;;5018460;28;20582;-61
2023/01/19 00:13:08;;;;;;;17.25;12.35;;;1.20;99.90;;;;;;5013883;28;20423;-62
2023/01/19 00:15:37;;;;;;;17.43;12.17;;;1.20;99.90;;;;;;5018017;28;20459;-62
2023/01/19 00:18:03;;;;;;;17.27;11.97;;;1.20;99.90;;;;;;5018509;28;20540;-62
2023/01/19 00:20:31;;;;;;;19.13;13.02;;;1.20;99.90;;;;;;5018761;28;20420;-63
2023/01/19 00:22:58;;;;;;;16.98;12.30;;;1.20;99.90;;;;;;5014444;28;20422;-62
2023/01/19 00:25:25;;;;;;;16.38;12.63;;;1.20;99.90;;;;;;5020866;28;20410;-62
2023/01/19 00:27:51;;;;;;;16.75;12.02;;;1.20;99.90;;;;;;5015683;28;20416;-63
2023/01/19 00:30:18;;;;;;;16.65;12.30;;;1.30;99.90;;;;;;5017785;28;20420;-63
2023/01/19 00:32:46;;;;;;;18.45;12.63;;;1.30;99.90;;;;;;5021076;28;20488;-63
2023/01/19 00:35:13;;;;;;;18.75;11.88;;;1.40;99.90;;;;;;5015766;28;20431;-63
2023/01/19 00:37:40;;;;;;;16.80;13.15;;;1.30;99.90;;;;;;5014007;28;20439;-62
2023/01/19 00:40:08;;;;;;;18.27;12.40;;;1.30;99.90;;;;;;5013923;28;20424;-62
2023/01/19 00:42:43;;;;;;;16.73;12.05;;;1.40;99.90;;;;;;5019404;28;20937;-63
2023/01/19 00:45:12;;;;;;;15.27;11.73;;;1.40;99.90;;;;;;5018918;28;20914;-62
2023/01/19 00:47:39;;;;;;;17.88;12.13;;;1.40;99.90;;;;;;5010765;28;20427;-63
2023/01/19 00:50:10;;;;;;;17.20;12.05;;;1.30;99.90;;;;;;5017470;28;20428;-64
2023/01/19 00:52:37;;;;;;;16.25;11.18;;;1.40;99.90;;;;;;5010174;28;20439;-62
2023/01/19 00:55:04;;;;;;;16.60;12.07;;;1.50;99.90;;;;;;5017679;28;20471;-61
2023/01/19 00:57:31;;;;;;;15.98;11.90;;;1.40;99.90;;;;;;5010492;28;20828;-62
2023/01/19 00:59:57;;;;;;;16.38;11.57;;;1.50;99.90;;;;;;5019161;28;20434;-62
2023/01/19 01:02:24;;;;;;;16.27;11.07;;;1.50;99.90;;;;;;5015859;28;20432;-61
2023/01/19 01:04:53;;;;;;;17.08;12.18;;;1.50;99.90;;;;;;5020209;28;20422;-62
2023/01/19 01:07:21;;;;;;;16.08;12.20;;;1.40;99.90;;;;;;5011414;28;20479;-62
2023/01/19 01:09:48;;;;;;;19.98;12.63;;;1.50;99.90;;;;;;5019530;28;20422;-62
2023/01/19 01:12:15;;;;;;;16.60;11.98;;;1.50;99.90;;;;;;5009325;28;20919;-61
2023/01/19 01:14:42;;;;;;;18.42;12.13;;;1.50;99.90;;;;;;5017878;28;20428;-61
2023/01/19 01:17:10;;;;;;;16.50;12.43;;;1.50;99.90;;;;;;5011414;28;21073;-62
2023/01/19 01:19:37;;;;;;;16.15;12.15;;;1.40;99.90;;;;;;5014133;28;20432;-62
2023/01/19 01:22:04;;;;;;;17.85;12.48;;;1.40;99.90;;;;;;5013024;28;20420;-61
2023/01/19 01:24:32;;;;;;;15.95;11.93;;;1.50;99.90;;;;;;5015546;28;20455;-61
2023/01/19 01:26:59;;;;;;;17.67;12.05;;;1.40;99.90;;;;;;5017585;28;20815;-61
2023/01/19 01:29:26;;;;;;;16.25;11.90;;;1.40;99.90;;;;;;5015105;28;20420;-62
2023/01/19 01:31:52;;;;;;;17.30;12.30;;;1.50;99.90;;;;;;5015947;28;20570;-62
2023/01/19 01:34:19;;;;;;;17.10;11.82;;;1.50;99.90;;;;;;5016583;28;20993;-62
2023/01/19 01:36:46;;;;;;;17.98;12.52;;;1.50;99.90;;;;;;5017466;28;20482;-62
2023/01/19 01:39:13;;;;;;;18.77;12.63;;;1.50;99.90;;;;;;5022565;28;20442;-62
2023/01/19 01:41:41;;;;;;;19.23;12.05;;;1.40;99.90;;;;;;5017803;28;20973;-62
2023/01/19 01:44:48;;;;;;;17.10;11.85;;;1.50;99.90;;;;;;5019098;28;20486;-62
2023/01/19 01:47:16;;;;;;;19.17;12.55;;;1.50;99.90;;;;;;5015977;28;20424;-60
2023/01/19 01:49:43;;;;;;;18.65;12.40;;;1.50;99.90;;;;;;5022529;28;20542;-62
2023/01/19 01:52:10;;;;;;;16.75;11.65;;;1.50;99.90;;;;;;5019965;28;20504;-62
2023/01/19 01:54:37;;;;;;;16.17;11.57;;;1.60;99.90;;;;;;5016092;28;20422;-62
2023/01/19 01:57:11;;;;;;;15.80;11.70;;;1.60;99.90;;;;;;5019676;28;20563;-62
2023/01/19 01:59:41;;;;;;;18.17;11.55;;;1.70;99.90;;;;;;5014541;28;20843;-62
2023/01/19 02:05:02;;;;;;;17.50;11.97;;;1.60;99.90;;;;;;5018560;28;20524;-62
2023/01/19 02:13:20;;;;;;;17.20;11.75;;;1.60;99.90;;;;;;5016375;28;20414;-62
2023/01/19 02:15:48;;;;;;;20.05;12.30;;;1.50;99.90;;;;;;5020387;28;20494;-62
2023/01/19 02:18:15;;;;;;;19.05;12.35;;;1.50;99.90;;;;;;5016660;28;20429;-62
2023/01/19 02:20:46;;;;;;;17.98;12.07;;;1.50;99.90;;;;;;5022899;28;20480;-62
2023/01/19 02:23:20;;;;;;;19.05;12.50;;;1.50;99.90;;;;;;5016975;28;20430;-61
2023/01/19 02:25:49;;;;;;;17.42;11.75;;;1.50;99.90;;;;;;5018170;28;20431;-62
2023/01/19 02:28:17;;;;;;;18.10;13.15;;;1.50;99.90;;;;;;5015619;28;20952;-61
2023/01/19 02:30:44;;;;;;;19.65;12.25;;;1.50;99.90;;;;;;5015628;28;20932;-62
2023/01/19 02:33:11;;;;;;;18.85;11.85;;;1.50;99.90;;;;;;5011224;28;20430;-62
2023/01/19 02:35:39;;;;;;;17.30;11.95;;;1.50;99.90;;;;;;5017350;28;20471;-62
2023/01/19 02:38:07;;;;;;;16.95;11.68;;;1.50;99.90;;;;;;5014600;28;20431;-61
2023/01/19 02:40:35;;;;;;;18.73;12.20;;;1.60;99.90;;;;;;5019529;28;20412;-62
2023/01/19 02:43:06;;;;;;;17.55;12.07;;;1.50;99.90;;;;;;5013693;28;20469;-61
2023/01/19 02:45:32;;;;;;;15.73;11.57;;;1.60;99.90;;;;;;5019382;28;20441;-62
2023/01/19 02:47:59;;;;;;;17.80;11.52;;;1.60;99.90;;;;;;5015326;28;20423;-62
2023/01/19 02:50:42;;;;;;;16.50;11.25;;;1.60;99.90;;;;;;5019984;28;20421;-61
2023/01/19 02:53:38;;;;;;;16.17;11.27;;;1.50;99.90;;;;;;5013831;28;20423;-62
2023/01/19 02:56:23;;;;;;;15.23;11.45;;;1.50;99.90;;;;;;5016156;28;21025;-62
2023/01/19 02:58:58;;;;;;;16.60;11.85;;;1.50;99.90;;;;;;5017400;28;20479;-61
2023/01/19 03:01:35;;;;;;;17.02;11.80;;;1.50;99.90;;;;;;5018779;28;20473;-61
2023/01/19 03:04:10;;;;;;;16.40;11.17;;;1.50;99.90;;;;;;5018787;28;20482;-62
2023/01/19 03:06:45;;;;;;;15.20;10.82;;;1.50;99.90;;;;;;5016166;28;20436;-62
2023/01/19 03:09:21;;;;;;;17.60;11.43;;;1.50;99.90;;;;;;5020221;28;20413;-62
2023/01/19 03:11:56;;;;;;;16.27;11.23;;;1.40;99.90;;;;;;5015388;28;20893;-62
2023/01/19 03:14:28;;;;;;;17.98;11.45;;;1.40;99.90;;;;;;5019679;28;20448;-62
2023/01/19 03:16:59;;;;;;;16.90;10.93;;;1.40;99.90;;;;;;5012729;28;20420;-62
2023/01/19 03:19:29;;;;;;;15.75;11.05;;;1.40;99.90;;;;;;5019591;28;20786;-61
2023/01/19 03:21:59;;;;;;;14.93;10.73;;;1.50;99.90;;;;;;5014071;28;21054;-61
2023/01/19 03:24:29;;;;;;;15.90;10.75;;;1.50;99.90;;;;;;5015591;28;20433;-62
2023/01/19 03:27:00;;;;;;;18.83;11.13;;;1.40;99.90;;;;;;5013229;28;20422;-62
2023/01/19 03:29:33;;;;;;;17.83;11.23;;;1.40;99.90;;;;;;5018054;28;20419;-62
2023/01/19 03:32:03;;;;;;;16.55;10.80;;;1.30;99.90;;;;;;5017231;28;20428;-62
2023/01/19 03:34:31;;;;;;;16.00;10.48;;;1.40;99.90;;;;;;5019039;28;20412;-62
2023/01/19 03:37:02;;;;;;;17.88;10.45;;;1.40;99.90;;;;;;5014060;28;20424;-62
2023/01/19 03:39:29;;;;;;;16.08;10.18;;;1.50;99.90;;;;;;5019010;28;20712;-62
2023/01/19 03:42:01;;;;;;;15.13;9.98;;;1.50;99.90;;;;;;5014244;28;20432;-61
2023/01/19 03:44:32;;;;;;;12.85;9.70;;;1.60;99.90;;;;;;5018620;28;20876;-61
2023/01/19 03:47:00;;;;;;;13.25;9.77;;;1.60;99.90;;;;;;5012013;28;20841;-61
2023/01/19 03:49:30;;;;;;;13.80;10.00;;;1.60;99.90;;;;;;5017768;28;20422;-62
2023/01/19 03:51:58;;;;;;;15.15;10.30;;;1.60;99.90;;;;;;5011669;28;21112;-62
2023/01/19 03:54:24;;;;;;;14.32;9.77;;;1.60;99.90;;;;;;5017917;28;20449;-62
2023/01/19 03:56:51;;;;;;;14.52;9.77;;;1.60;99.90;;;;;;5013623;28;20487;-62
2023/01/19 03:59:18;;;;;;;16.05;9.70;;;1.60;99.90;;;;;;5017457;28;20515;-62
2023/01/19 04:01:47;;;;;;;17.98;9.82;;;1.70;99.90;;;;;;5018075;28;20449;-62
2023/01/19 04:04:14;;;;;;;14.65;9.60;;;1.70;99.90;;;;;;5018651;28;20479;-62
2023/01/19 04:06:41;;;;;;;15.13;9.68;;;1.70;99.90;;;;;;5017538;28;20907;-62
2023/01/19 04:09:08;;;;;;;15.50;9.50;;;1.70;99.90;;;;;;5019644;28;20409;-62
2023/01/19 04:11:34;;;;;;;14.60;9.23;;;1.60;99.90;;;;;;5013857;28;21026;-62
2023/01/19 04:14:01;;;;;;;15.50;9.60;;;1.60;99.90;;;;;;5016087;28;20474;-62
2023/01/19 04:16:28;;;;;;;16.75;10.23;;;1.60;99.90;;;;;;5018305;28;20428;-62
2023/01/19 04:18:56;;;;;;;15.07;9.98;;;1.50;99.90;;;;;;5018555;28;20457;-61
2023/01/19 04:21:23;;;;;;;15.02;10.90;;;1.50;99.90;;;;;;5011916;28;20429;-62
2023/01/19 04:23:49;;;;;;;17.83;10.90;;;1.50;99.90;;;;;;5011384;28;20412;-62
2023/01/19 04:26:17;;;;;;;19.52;12.27;;;1.40;99.90;;;;;;5013196;28;20431;-60
2023/01/19 04:28:43;;;;;;;15.85;11.45;;;1.30;99.90;;;;;;5017451;28;20407;-62
2023/01/19 04:31:11;;;;;;;19.00;12.68;;;1.20;99.90;;;;;;5017905;28;20431;-61
2023/01/19 04:33:38;;;;;;;18.35;12.95;;;1.10;99.90;;;;;;5020185;28;21093;-62
2023/01/19 04:36:07;;;;;;;22.63;13.50;;;1.20;99.90;;;;;;5017170;28;20456;-61
2023/01/19 04:38:34;;;;;;;22.85;14.35;;;0.90;99.90;;;;;;5019552;28;20970;-62
2023/01/19 04:41:01;;;;;;;22.75;13.50;;;0.90;99.90;;;;;;5015623;28;20928;-62
2023/01/19 04:43:27;;;;;;;25.77;15.30;;;0.90;99.90;;;;;;5021763;28;20416;-62
2023/01/19 04:45:54;;;;;;;24.42;15.00;;;0.80;99.90;;;;;;5020822;28;20428;-62
2023/01/19 04:48:21;;;;;;;25.98;16.20;;;0.80;99.90;;;;;;5020206;28;20421;-61
2023/01/19 04:50:47;;;;;;;28.17;17.25;;;0.70;99.90;;;;;;5023110;28;20419;-61
2023/01/19 04:53:17;;;;;;;29.17;17.75;;;0.60;99.90;;;;;;5019499;28;20477;-62
2023/01/19 04:55:44;;;;;;;30.38;18.33;;;0.60;99.90;;;;;;5020241;28;20444;-62
2023/01/19 04:58:10;;;;;;;29.67;17.98;;;0.60;99.90;;;;;;5017070;28;20474;-62
2023/01/19 05:00:37;;;;;;;31.60;18.88;;;0.60;99.90;;;;;;5017035;28;20460;-61
2023/01/19 05:03:04;;;;;;;34.13;19.00;;;0.50;99.90;;;;;;5016889;28;20428;-62
2023/01/19 05:05:31;;;;;;;35.03;19.45;;;0.60;99.90;;;;;;5021176;28;20435;-62
2023/01/19 05:07:58;;;;;;;31.17;18.58;;;0.60;99.90;;;;;;5018959;28;20447;-61
2023/01/19 05:10:26;;;;;;;31.90;18.10;;;0.60;99.90;;;;;;5021655;28;20463;-61
2023/01/19 05:12:53;;;;;;;33.70;19.13;;;0.50;99.90;;;;;;5019734;28;20473;-61
2023/01/19 05:15:19;;;;;;;32.08;17.52;;;0.60;99.90;;;;;;5018445;28;20812;-61
2023/01/19 05:17:46;;;;;;;29.27;18.05;;;0.60;99.90;;;;;;5017430;28;20885;-61
2023/01/19 05:20:14;;;;;;;30.38;17.52;;;0.60;99.90;;;;;;5021836;28;20468;-61
2023/01/19 05:22:41;;;;;;;29.42;16.45;;;0.60;99.90;;;;;;5013865;28;20424;-62
2023/01/19 05:25:08;;;;;;;24.88;15.57;;;0.70;99.90;;;;;;5016296;28;20769;-62
2023/01/19 05:27:37;;;;;;;26.93;16.47;;;0.70;99.90;;;;;;5016639;28;20861;-63
2023/01/19 05:30:05;;;;;;;26.95;15.85;;;0.70;99.90;;;;;;5019882;28;20486;-62
2023/01/19 05:32:31;;;;;;;26.15;14.98;;;0.60;99.90;;;;;;5014210;28;20420;-64
2023/01/19 05:34:58;;;;;;;26.75;16.23;;;0.70;99.90;;;;;;5016528;28;20918;-64
2023/01/19 05:37:25;;;;;;;25.33;14.67;;;0.70;99.90;;;;;;5019728;28;20508;-64
2023/01/19 05:39:52;;;;;;;23.48;14.95;;;0.80;99.90;;;;;;5020680;28;20486;-64
2023/01/19 05:42:20;;;;;;;23.52;14.70;;;0.80;99.90;;;;;;5016442;28;20428;-64
2023/01/19 05:44:48;;;;;;;21.50;13.13;;;0.90;99.90;;;;;;5019147;28;20424;-63
2023/01/19 05:47:15;;;;;;;22.42;13.55;;;0.80;99.90;;;;;;5014276;28;20422;-63
2023/01/19 05:49:41;;;;;;;22.33;13.40;;;0.80;99.90;;;;;;5014470;28;20424;-64
2023/01/19 05:52:08;;;;;;;22.58;13.38;;;0.90;99.90;;;;;;5012868;28;20428;-64
2023/01/19 05:54:35;;;;;;;19.23;12.83;;;0.90;99.90;;;;;;5011787;28;20926;-63
2023/01/19 05:57:03;;;;;;;21.85;11.85;;;0.80;99.90;;;;;;5019487;28;20418;-63
2023/01/19 05:59:30;;;;;;;18.73;11.63;;;0.90;99.90;;;;;;5011876;28;20515;-63
2023/01/19 06:01:58;;;;;;;18.57;12.23;;;0.90;99.90;;;;;;5016518;28;20438;-63
2023/01/19 06:04:25;;;;;;;18.65;11.52;;;0.80;99.90;;;;;;5016980;28;20431;-63
2023/01/19 06:06:52;;;;;;;18.80;11.38;;;0.80;99.90;;;;;;5015112;28;20427;-63
2023/01/19 06:09:19;;;;;;;16.38;10.73;;;0.90;99.90;;;;;;5022827;28;20414;-62
2023/01/19 06:11:46;;;;;;;16.08;10.70;;;0.90;99.90;;;;;;5017045;28;20917;-63
2023/01/19 06:14:13;;;;;;;17.13;11.35;;;0.90;99.90;;;;;;5018224;28;20431;-62
2023/01/19 06:16:40;;;;;;;17.45;10.48;;;0.80;99.90;;;;;;5012769;28;20424;-63
2023/01/19 06:19:08;;;;;;;17.25;11.20;;;0.80;99.90;;;;;;5020695;28;20907;-63
2023/01/19 06:21:34;;;;;;;16.37;10.30;;;0.70;99.90;;;;;;5019525;28;21254;-63
2023/01/19 06:24:02;;;;;;;15.18;10.13;;;0.80;99.90;;;;;;5013487;28;20417;-63
2023/01/19 06:26:29;;;;;;;17.00;10.27;;;0.80;99.90;;;;;;5016627;28;20420;-65
2023/01/19 06:28:56;;;;;;;16.67;10.23;;;0.80;99.90;;;;;;5011375;28;20448;-63
2023/01/19 06:31:22;;;;;;;14.50;9.73;;;0.90;99.90;;;;;;5013274;28;20422;-66
2023/01/19 06:33:49;;;;;;;14.32;9.43;;;0.80;99.90;;;;;;5018668;28;20448;-62
2023/01/19 06:36:17;;;;;;;15.57;10.45;;;0.90;99.90;;;;;;5019603;28;20644;-64
2023/01/19 06:38:45;;;;;;;17.65;11.50;;;0.80;99.90;;;;;;5015826;28;20559;-65
2023/01/19 06:41:11;;;;;;;18.05;10.82;;;0.90;99.90;;;;;;5017655;28;20464;-64
2023/01/19 06:43:38;;;;;;;15.80;10.63;;;0.80;99.90;;;;;;5014671;28;20427;-65
2023/01/19 06:46:05;;;;;;;15.68;10.25;;;0.80;99.90;;;;;;5016355;28;21064;-65
2023/01/19 06:48:32;;;;;;;14.77;9.57;;;0.80;99.90;;;;;;5015878;28;20423;-64
2023/01/19 06:50:59;;;;;;;15.98;10.20;;;0.90;99.90;;;;;;5011326;28;20434;-63
2023/01/19 06:53:29;;;;;;;14.50;10.10;;;0.90;99.90;;;;;;5017125;28;20433;-65
2023/01/19 06:55:59;;;;;;;18.40;10.80;;;0.90;99.90;;;;;;5013024;28;20453;-65
2023/01/19 06:58:26;;;;;;;15.93;10.38;;;0.70;99.90;;;;;;5013391;28;20423;-60
2023/01/19 07:00:52;;;;;;;16.75;10.02;;;0.70;99.90;;;;;;5019163;28;20450;-62
2023/01/19 07:03:21;;;;;;;16.97;10.10;;;0.70;99.90;;;;;;5013714;28;20420;-62
2023/01/19 07:05:51;;;;;;;16.58;10.32;;;0.80;99.90;;;;;;5017659;28;20421;-63
2023/01/19 07:08:18;;;;;;;14.20;9.88;;;0.80;99.90;;;;;;5016567;28;20494;-62
2023/01/19 07:10:46;;;;;;;15.88;9.40;;;0.80;99.90;;;;;;5020674;28;20411;-60
2023/01/19 07:13:13;;;;;;;11.97;8.50;;;0.80;99.90;;;;;;5021336;28;20425;-61
2023/01/19 07:15:40;;;;;;;14.02;8.43;;;0.80;99.90;;;;;;5019318;28;20415;-60
2023/01/19 07:18:07;;;;;;;12.68;8.77;;;0.80;99.90;;;;;;5009403;28;20490;-59
2023/01/19 07:20:34;;;;;;;15.15;9.60;;;0.80;99.90;;;;;;5018369;28;20492;-61
2023/01/19 07:23:01;;;;;;;12.48;8.70;;;0.80;99.90;;;;;;5011875;28;20839;-59
2023/01/19 07:25:28;;;;;;;12.48;8.80;;;0.90;99.90;;;;;;5018614;28;20421;-61
2023/01/19 07:27:58;;;;;;;12.60;8.80;;;0.90;99.90;;;;;;5007683;28;21116;-61
2023/01/19 07:30:24;;;;;;;14.32;9.88;;;0.90;99.90;;;;;;5020118;28;20494;-61
2023/01/19 07:32:51;;;;;;;16.53;9.33;;;0.80;99.90;;;;;;5010309;28;20831;-61
2023/01/19 07:35:18;;;;;;;15.40;10.13;;;0.80;99.90;;;;;;5020637;28;20414;-61
2023/01/19 07:37:44;;;;;;;15.17;10.00;;;0.90;99.90;;;;;;5018201;28;20511;-60
2023/01/19 07:40:12;;;;;;;16.90;11.68;;;0.90;99.90;;;;;;5019004;28;20428;-61
2023/01/19 07:42:38;;;;;;;21.65;13.60;;;0.80;99.90;;;;;;5011023;28;20429;-61
2023/01/19 07:45:08;;;;;;;22.58;13.50;;;0.90;99.90;;;;;;5014909;28;20428;-60
2023/01/19 07:47:34;;;;;;;20.30;13.02;;;0.90;99.90;;;;;;5012703;28;20432;-62
2023/01/19 07:50:02;;;;;;;20.00;13.50;;;0.90;99.90;;;;;;5016967;28;20417;-62
2023/01/19 07:52:28;;;;;;;21.33;13.77;;;0.90;99.90;;;;;;5013195;28;20437;-62
2023/01/19 07:54:55;;;;;;;22.08;14.32;;;0.90;99.90;;;;;;5017458;28;20426;-60
2023/01/19 07:57:22;;;;;;;22.38;13.93;;;1.00;99.90;;;;;;5011714;28;20818;-61
2023/01/19 07:59:49;;;;;;;21.00;14.48;;;1.00;99.90;;;;;;5017127;28;20527;-62
2023/01/19 08:02:17;;;;;;;22.15;14.52;;;1.00;99.90;;;;;;5014574;28;20447;-63
2023/01/19 08:04:44;;;;;;;21.35;13.80;;;1.00;99.90;;;;;;5020699;28;20906;-64
2023/01/19 08:07:11;;;;;;;24.67;14.88;;;1.10;99.90;;;;;;5025017;28;20419;-64
2023/01/19 08:09:38;;;;;;;21.70;14.80;;;1.10;99.90;;;;;;5020503;28;20890;-64
2023/01/19 08:12:05;;;;;;;23.17;13.82;;;1.10;99.90;;;;;;5020666;28;20991;-62
2023/01/19 08:14:33;;;;;;;25.13;15.13;;;1.00;99.90;;;;;;5018815;28;20501;-61
2023/01/19 08:16:59;;;;;;;24.98;14.55;;;1.10;99.90;;;;;;5023514;28;20435;-66
2023/01/19 08:19:28;;;;;;;24.17;14.80;;;1.10;99.90;;;;;;5025538;28;20415;-62
2023/01/19 08:21:55;;;;;;;22.92;13.98;;;1.20;99.90;;;;;;5023426;28;20443;-63
2023/01/19 08:24:24;;;;;;;22.20;14.45;;;1.20;99.90;;;;;;5022821;28;20916;-63
2023/01/19 08:26:58;;;;;;;21.98;13.85;;;1.20;99.90;;;;;;5023673;28;20414;-62
2023/01/19 08:29:24;;;;;;;24.67;15.05;;;1.10;99.90;;;;;;5025309;28;20418;-65
2023/01/19 08:31:52;;;;;;;22.50;14.32;;;1.20;99.90;;;;;;5023216;28;20416;-63
2023/01/19 08:34:18;;;;;;;24.02;14.85;;;1.30;99.90;;;;;;5019638;28;20870;-62
2023/01/19 08:36:46;;;;;;;25.85;14.77;;;1.20;99.90;;;;;;5022297;28;20423;-63
2023/01/19 08:39:13;;;;;;;23.05;14.85;;;1.20;99.90;;;;;;5021768;28;20420;-63
2023/01/19 08:41:40;;;;;;;24.02;14.40;;;1.30;99.90;;;;;;5024821;28;20434;-63
2023/01/19 08:44:07;;;;;;;23.05;13.95;;;1.30;99.90;;;;;;5022845;28;20911;-62
2023/01/19 08:46:33;;;;;;;26.05;15.60;;;1.30;99.90;;;;;;5017910;28;20420;-62
2023/01/19 08:49:00;;;;;;;26.90;15.60;;;1.30;99.90;;;;;;5022321;28;20428;-62
2023/01/19 08:51:27;;;;;;;26.58;15.95;;;1.30;99.90;;;;;;5017251;28;20411;-62
2023/01/19 08:53:55;;;;;;;24.23;14.43;;;1.30;99.90;;;;;;5021550;28;20420;-62
2023/01/19 08:56:21;;;;;;;29.48;16.63;;;1.40;99.90;;;;;;5023456;28;20423;-62
2023/01/19 08:58:48;;;;;;;25.73;15.98;;;1.30;99.90;;;;;;5020548;28;20475;-63
2023/01/19 09:01:15;;;;;;;27.67;16.70;;;1.40;99.90;;;;;;5019087;28;20428;-62
2023/01/19 09:03:42;;;;;;;27.20;17.60;;;1.40;99.90;;;;;;5019802;28;20415;-63
2023/01/19 09:06:10;;;;;;;30.53;18.20;;;1.30;99.90;;;;;;5021909;28;20417;-61
2023/01/19 09:08:38;;;;;;;29.95;17.92;;;1.40;99.90;;;;;;5013080;28;20423;-60
2023/01/19 09:11:11;;;;;;;31.42;18.52;;;1.40;99.90;;;;;;5017081;28;20821;-61
2023/01/19 09:13:38;;;;;;;30.45;19.83;;;1.40;99.90;;;;;;5018671;28;21275;-60
2023/01/19 09:16:06;;;;;;;31.40;19.88;;;1.40;99.90;;;;;;5016369;28;20785;-61
2023/01/19 09:18:34;;;;;;;38.42;21.33;;;1.40;99.90;;;;;;5020438;28;20879;-61
2023/01/19 09:21:02;;;;;;;34.58;20.98;;;1.40;99.90;;;;;;5020354;28;20461;-60
2023/01/19 09:23:28;;;;;;;36.03;21.90;;;1.40;99.90;;;;;;5016611;28;20482;-63
2023/01/19 09:25:57;;;;;;;37.85;23.42;;;1.40;99.90;;;;;;5018654;28;20835;-63
2023/01/19 09:28:25;;;;;;;38.10;23.13;;;1.40;99.90;;;;;;5018742;28;20423;-63
2023/01/19 09:30:53;;;;;;;41.25;24.48;;;1.40;99.90;;;;;;5021969;28;20776;-62
2023/01/19 09:33:20;;;;;;;40.03;23.77;;;1.50;99.90;;;;;;5023393;28;20480;-63
2023/01/19 09:35:49;;;;;;;39.38;23.50;;;1.50;99.90;;;;;;5021762;28;20435;-64
2023/01/19 09:38:16;;;;;;;41.15;24.13;;;1.60;99.90;;;;;;5020051;28;20904;-63
2023/01/19 09:40:47;;;;;;;36.38;23.48;;;1.60;99.90;;;;;;5021166;28;20911;-63
2023/01/19 09:43:23;;;;;;;42.17;24.80;;;1.60;99.90;;;;;;5014757;28;20424;-64
2023/01/19 09:45:55;;;;;;;39.17;24.23;;;1.60;99.90;;;;;;5019219;28;20819;-63
2023/01/19 09:48:31;;;;;;;38.13;24.20;;;1.60;99.90;;;;;;5016434;28;20452;-62
2023/01/19 09:51:02;;;;;;;41.22;24.88;;;1.60;99.90;;;;;;5018692;28;20413;-64
2023/01/19 09:53:46;;;;;;;43.83;24.52;;;1.70;99.90;;;;;;5021493;28;20427;-64
2023/01/19 09:56:15;;;;;;;39.33;24.27;;;1.70;99.90;;;;;;5021765;28;20420;-66
2023/01/19 09:58:42;;;;;;;42.45;25.58;;;1.60;99.90;;;;;;5023347;28;20832;-63
2023/01/19 10:01:28;;;;;;;43.13;24.58;;;1.70;99.90;;;;;;5021540;28;20424;-62
2023/01/19 10:04:14;;;;;;;39.22;24.48;;;1.80;99.90;;;;;;5024820;28;20949;-65
2023/01/19 10:06:42;;;;;;;37.25;23.90;;;1.70;99.90;;;;;;5021663;28;20432;-62
2023/01/19 10:09:18;;;;;;;40.88;24.52;;;1.70;99.90;;;;;;5019997;28;20420;-61
2023/01/19 10:11:49;;;;;;;41.00;25.30;;;1.80;99.90;;;;;;5020128;28;20412;-64
2023/01/19 10:14:20;;;;;;;42.08;24.10;;;1.70;99.90;;;;;;5022675;28;20440;-63
2023/01/19 10:16:56;;;;;;;37.97;23.27;;;1.80;99.90;;;;;;5024311;28;20761;-64
2023/01/19 10:19:27;;;;;;;32.65;22.42;;;1.90;99.90;;;;;;5018555;28;20426;-65
2023/01/19 10:21:57;;;;;;;37.27;22.93;;;1.90;99.90;;;;;;5024086;28;20422;-68
2023/01/19 10:24:28;;;;;;;33.72;22.55;;;1.90;99.90;;;;;;5009367;28;20436;-66
2023/01/19 10:26:56;;;;;;;39.38;24.00;;;1.90;99.90;;;;;;5023855;28;20465;-65
2023/01/19 10:29:28;;;;;;;39.50;23.60;;;1.80;99.90;;;;;;5018619;28;20428;-66
2023/01/19 10:32:03;;;;;;;43.92;24.95;;;1.90;99.90;;;;;;5020254;28;20416;-65
2023/01/19 10:34:30;;;;;;;42.70;25.48;;;1.80;99.90;;;;;;5019385;28;20832;-66
2023/01/19 10:37:05;;;;;;;40.07;24.83;;;1.80;99.90;;;;;;5017810;28;20512;-64
2023/01/19 10:39:32;;;;;;;45.08;26.15;;;1.90;99.90;;;;;;5013738;28;20409;-62
2023/01/19 10:42:02;;;;;;;44.97;27.20;;;1.90;99.90;;;;;;5017023;28;20454;-64
2023/01/19 10:44:34;;;;;;;43.37;26.43;;;1.90;99.90;;;;;;5018603;28;20420;-64
2023/01/19 10:47:05;;;;;;;43.30;27.57;;;1.90;99.90;;;;;;5011848;28;20424;-64
2023/01/19 10:49:37;;;;;;;46.88;26.58;;;2.00;99.90;;;;;;5018606;28;20446;-66
2023/01/19 10:52:06;;;;;;;44.33;27.67;;;2.10;99.90;;;;;;5013913;28;20432;-63
2023/01/19 10:54:36;;;;;;;47.60;27.95;;;2.10;99.90;;;;;;5015635;28;20410;-61
2023/01/19 10:57:05;;;;;;;46.78;26.90;;;2.00;99.90;;;;;;5017500;28;20495;-62
2023/01/19 10:59:35;;;;;;;42.20;26.00;;;2.00;99.90;;;;;;5019601;28;20423;-63
2023/01/19 11:02:17;;;;;;;43.17;27.40;;;2.20;99.90;;;;;;5019414;28;20458;-65
2023/01/19 11:04:45;;;;;;;45.73;26.37;;;2.20;99.90;;;;;;5021549;28;20949;-64
2023/01/19 11:07:20;;;;;;;46.65;27.60;;;2.20;99.90;;;;;;5019056;28;20424;-64
2023/01/19 11:09:47;;;;;;;53.13;28.60;;;2.20;99.90;;;;;;5018984;28;20413;-66
2023/01/19 11:12:19;;;;;;;50.80;28.50;;;2.20;99.90;;;;;;5021298;28;20415;-64
2023/01/19 11:14:46;;;;;;;51.88;28.30;;;2.40;99.90;;;;;;5018608;28;20420;-64
2023/01/19 11:17:25;;;;;;;50.47;28.77;;;2.40;99.90;;;;;;5010260;28;20884;-62
2023/01/19 11:19:59;;;;;;;53.92;29.65;;;2.40;99.90;;;;;;5018658;28;20420;-62
2023/01/19 11:22:31;;;;;;;48.90;28.92;;;2.40;99.90;;;;;;5018447;28;21387;-63
2023/01/19 11:25:03;;;;;;;48.50;30.00;;;2.40;99.90;;;;;;5023162;28;20419;-63
2023/01/19 11:27:33;;;;;;;52.28;29.70;;;2.50;99.90;;;;;;5019155;28;20425;-62
2023/01/19 11:30:09;;;;;;;49.28;27.83;;;2.60;99.90;;;;;;5024365;28;20422;-61
2023/01/19 11:32:37;;;;;;;55.50;30.27;;;2.50;99.90;;;;;;5013571;28;20417;-62
2023/01/19 11:35:32;;;;;;;58.58;32.90;;;2.40;99.90;;;;;;5012998;28;20899;-60
2023/01/19 11:38:07;;;;;;;61.92;32.95;;;2.30;99.90;;;;;;5017053;28;20428;-61
2023/01/19 11:40:35;;;;;;;63.13;32.50;;;2.30;99.90;;;;;;5020566;28;20423;-62
2023/01/19 11:43:02;;;;;;;60.90;32.55;;;2.30;99.90;;;;;;5016807;28;20430;-64
2023/01/19 11:45:29;;;;;;;57.25;31.55;;;2.20;99.90;;;;;;5014061;28;20418;-65
2023/01/19 11:47:57;;;;;;;65.75;34.72;;;2.20;99.90;;;;;;5019002;28;20427;-68
2023/01/19 11:50:28;;;;;;;64.60;34.13;;;2.40;99.90;;;;;;5010015;28;20800;-69
2023/01/19 11:53:01;;;;;;;65.10;36.23;;;2.60;99.90;;;;;;5020856;28;20411;-69
2023/01/19 11:55:36;;;;;;;50.10;31.73;;;2.90;99.90;;;;;;5020615;28;20511;-62
2023/01/19 11:58:04;;;;;;;50.70;31.42;;;2.90;99.90;;;;;;5016673;28;20892;-62
2023/01/19 12:00:36;;;;;;;52.78;30.92;;;2.90;99.90;;;;;;5020570;28;21184;-65
2023/01/19 12:03:14;;;;;;;55.67;31.83;;;2.70;99.90;;;;;;5018597;28;20597;-63
2023/01/19 12:05:46;;;;;;;63.20;33.08;;;2.60;99.90;;;;;;5019116;28;20424;-63
2023/01/19 12:08:15;;;;;;;60.28;32.72;;;2.40;99.90;;;;;;5017926;28;20420;-62
2023/01/19 12:10:46;;;;;;;59.58;33.22;;;2.40;99.90;;;;;;5020400;28;20415;-62
2023/01/19 12:13:20;;;;;;;62.35;32.88;;;2.50;99.90;;;;;;5020469;28;20505;-64
2023/01/19 12:15:48;;;;;;;57.88;31.83;;;2.50;99.90;;;;;;5020230;28;20418;-63
2023/01/19 12:18:21;;;;;;;64.47;31.10;;;2.50;99.90;;;;;;5009531;28;20842;-63
2023/01/19 12:20:49;;;;;;;60.67;30.92;;;2.40;99.90;;;;;;5016380;28;20425;-60
2023/01/19 12:23:25;;;;;;;62.40;31.10;;;2.40;99.90;;;;;;5017939;28;20459;-66
2023/01/19 12:26:01;;;;;;;63.72;32.35;;;2.50;99.90;;;;;;5018558;28;20420;-64
2023/01/19 12:28:31;;;;;;;63.05;31.75;;;2.40;99.90;;;;;;5020059;28;20418;-61
2023/01/19 12:31:00;;;;;;;65.90;32.83;;;2.40;99.90;;;;;;5021249;28;20417;-64
2023/01/19 12:33:36;;;;;;;60.13;32.42;;;2.50;99.90;;;;;;5019490;28;20420;-63
2023/01/19 12:36:08;;;;;;;62.88;31.63;;;2.40;99.90;;;;;;5018273;28;20421;-63
2023/01/19 12:38:49;;;;;;;62.80;32.20;;;2.40;99.90;;;;;;5018292;28;20450;-61
2023/01/19 12:41:22;;;;;;;77.30;34.70;;;2.30;99.90;;;;;;5012897;28;20421;-62
2023/01/19 12:44:23;;;;;;;68.78;34.67;;;2.30;99.90;;;;;;5019260;28;20486;-64
2023/01/19 12:46:54;;;;;;;70.65;33.65;;;2.30;99.90;;;;;;5014884;28;20417;-61
2023/01/19 12:49:28;;;;;;;66.10;33.97;;;2.30;99.90;;;;;;5017722;28;20510;-63
2023/01/19 12:52:19;;;;;;;67.28;32.35;;;2.30;99.90;;;;;;5018516;28;20411;-62
2023/01/19 12:54:53;;;;;;;66.50;33.03;;;2.40;99.90;;;;;;5020238;28;20494;-63
2023/01/19 12:57:24;;;;;;;60.58;32.97;;;2.40;99.90;;;;;;5004653;28;20419;-63